createdAt,value
2023-04-02T00:09:33.682Z,98538.41
2023-04-02T00:19:44.279Z,98548.34
2023-04-02T00:29:51.738Z,98554.63
2023-04-02T00:40:02.116Z,98564.81
2023-04-02T00:50:20.579Z,98564.20
2023-04-02T01:00:32.302Z,98577.52
2023-04-02T01:10:51.127Z,98584.29
2023-04-02T01:21:28.382Z,98592.55
2023-04-02T01:31:35.325Z,98597.25
2023-04-02T01:41:44.243Z,98602.46
2023-04-02T01:51:55.223Z,98606.16
2023-04-02T02:02:04.373Z,98618.29
2023-04-02T02:12:14.294Z,98628.21
2023-04-02T02:22:28.262Z,98634.58
2023-04-02T02:32:37.726Z,98641.84
2023-04-02T02:42:50.307Z,98651.48
2023-04-02T02:52:59.228Z,98658.05
2023-04-02T03:03:08.072Z,98669.64
2023-04-02T03:13:23.110Z,98676.72
2023-04-02T03:23:34.108Z,98689.88
2023-04-02T03:33:43.525Z,98697.15
2023-04-02T03:43:53.845Z,98698.70
2023-04-02T03:53:59.708Z,98707.08
2023-04-02T04:04:11.595Z,98724.45
2023-04-02T04:14:21.183Z,98742.20
2023-04-02T04:24:28.633Z,98759.46
2023-04-02T04:34:46.649Z,98772.61
2023-04-02T04:44:58.351Z,98781.28
2023-04-02T04:55:05.628Z,98795.48
2023-04-02T05:05:21.509Z,98807.79
2023-04-02T05:15:31.520Z,98817.47
2023-04-02T05:25:39.200Z,98827.77
2023-04-02T05:35:49.634Z,98852.38
2023-04-02T05:45:59.407Z,98866.71
2023-04-02T05:56:12.471Z,98878.18
2023-04-02T06:06:27.473Z,98893.67
2023-04-02T06:16:34.443Z,98907.41
2023-04-02T06:26:44.589Z,98925.61
2023-04-02T06:36:52.563Z,98936.00
2023-04-02T06:47:04.098Z,98944.27
2023-04-02T06:57:10.537Z,98962.63
2023-04-02T07:07:16.658Z,98973.22
2023-04-02T07:17:23.059Z,98982.18
2023-04-02T07:27:29.074Z,99011.48
2023-04-02T07:37:35.098Z,99029.97
2023-04-02T07:47:41.138Z,99035.15
2023-04-02T07:57:52.688Z,99045.20
2023-04-02T08:07:58.749Z,99056.50
2023-04-02T08:18:04.593Z,99065.75
2023-04-02T08:28:11.107Z,99078.35
2023-04-02T08:38:22.723Z,99092.54
2023-04-02T08:48:29.216Z,99110.05
2023-04-02T08:58:42.926Z,99120.69
2023-04-02T09:08:51.919Z,99136.23
2023-04-02T09:18:57.692Z,99158.14
2023-04-02T09:29:17.210Z,99178.71
2023-04-02T09:39:25.840Z,99194.20
2023-04-02T09:49:33.899Z,99203.87
2023-04-02T09:59:39.637Z,99210.70
2023-04-02T10:09:45.851Z,99225.87
2023-04-02T10:19:55.563Z,99236.16
2023-04-02T10:30:10.617Z,99240.39
2023-04-02T10:40:22.634Z,99261.45
2023-04-02T10:50:39.393Z,99271.81
2023-04-02T11:00:47.959Z,99280.19
2023-04-02T11:10:59.129Z,99293.40
2023-04-02T11:21:07.637Z,99313.38
2023-04-02T11:31:22.987Z,99328.20
2023-04-02T11:42:05.825Z,99341.38
2023-04-02T11:52:27.997Z,99353.36
2023-04-02T12:02:40.513Z,99358.39
2023-04-02T12:12:47.106Z,99372.41
2023-04-02T12:22:55.709Z,99375.01
2023-04-02T12:33:17.564Z,99383.69
2023-04-02T12:43:31.748Z,99398.92
2023-04-02T12:53:40.431Z,99415.42
2023-04-02T13:03:59.789Z,99424.85
2023-04-02T13:14:08.895Z,99439.78
2023-04-02T13:24:21.135Z,99441.34
2023-04-02T13:34:27.121Z,99451.73
2023-04-02T13:44:35.100Z,99470.15
2023-04-02T13:54:46.381Z,99479.14
2023-04-02T14:04:57.766Z,99491.42
2023-04-02T14:15:20.579Z,99496.31
2023-04-02T14:25:32.158Z,99511.23
2023-04-02T14:35:42.328Z,99521.80
2023-04-02T14:45:57.404Z,99529.09
2023-04-02T14:56:06.759Z,99546.16
2023-04-02T15:06:16.502Z,99553.70
2023-04-02T15:16:26.510Z,99562.70
2023-04-02T15:26:42.657Z,99573.33
2023-04-02T15:37:06.547Z,99592.26
2023-04-02T15:47:22.874Z,99610.80
2023-04-02T15:57:45.909Z,99625.05
2023-04-02T16:08:18.339Z,99644.04
2023-04-02T16:18:34.046Z,99659.27
2023-04-02T16:28:46.673Z,99673.90
2023-04-02T16:39:00.466Z,99692.17
2023-04-02T16:49:17.550Z,99705.44
2023-04-02T16:59:33.611Z,99723.54
2023-04-02T17:09:50.393Z,99733.21
2023-04-02T17:20:01.374Z,99748.94
2023-04-02T17:30:17.203Z,99757.07
2023-04-02T17:40:29.511Z,99769.69
2023-04-02T17:50:52.050Z,99780.14
2023-04-02T18:01:08.206Z,99786.56
2023-04-02T18:11:23.406Z,99800.54
2023-04-02T18:21:36.663Z,99814.98
2023-04-02T18:31:49.644Z,99825.10
2023-04-02T18:42:04.672Z,99842.77
2023-04-02T18:52:15.516Z,99852.27
2023-04-02T19:02:41.499Z,99863.48
2023-04-02T19:12:47.459Z,99873.55
2023-04-02T19:23:03.298Z,99874.20
2023-04-02T19:33:20.890Z,99880.06
2023-04-02T19:43:27.255Z,99882.59
2023-04-02T19:53:33.459Z,99892.52
2023-04-02T20:03:39.678Z,99901.57
2023-04-02T20:13:45.474Z,99906.48
2023-04-02T20:23:55.462Z,99911.08
2023-04-02T20:34:02.734Z,99919.48
2023-04-02T20:44:08.652Z,99929.11
2023-04-02T20:54:14.433Z,99934.20
2023-04-02T21:04:21.996Z,99945.35
2023-04-02T21:14:27.800Z,99955.44
2023-04-02T21:24:33.670Z,99958.20
2023-04-02T21:34:39.653Z,99968.85
2023-04-02T21:44:45.943Z,99980.80
2023-04-02T21:54:52.165Z,99982.66
2023-04-02T22:04:58.530Z,99991.79
2023-04-02T22:15:04.805Z,99997.63
2023-04-02T22:25:12.071Z,100007.80
2023-04-02T22:35:21.561Z,100017.02
2023-04-02T22:45:27.439Z,100027.00
2023-04-02T22:55:33.545Z,100037.06
2023-04-02T23:05:39.902Z,100044.20
2023-04-02T23:15:47.765Z,100049.67
2023-04-02T23:26:02.991Z,100058.48
2023-04-02T23:36:15.644Z,100054.80
2023-04-02T23:46:22.684Z,100062.11
2023-04-02T23:56:29.359Z,100067.99
